sensor_id;sensor_type;location;lat;lon;timestamp;pressure;altitude;pressure_sealevel;temperature;humidity
60258;BME280;46115;44.484;11.314;2022-08-19T00:01:01;99723.88;;;21.17;100.00
60258;BME280;46115;44.484;11.314;2022-08-19T00:05:04;99709.47;;;20.92;100.00
60258;BME280;46115;44.484;11.314;2022-08-19T00:09:08;99737.31;;;21.17;100.00
60258;BME280;46115;44.484;11.314;2022-08-19T00:13:11;99716.88;;;21.24;100.00
60258;BME280;46115;44.484;11.314;2022-08-19T00:17:16;99702.47;;;21.33;100.00
60258;BME280;46115;44.484;11.314;2022-08-19T00:21:18;99680.28;;;21.39;100.00
60258;BME280;46115;44.484;11.314;2022-08-19T00:25:21;99664.66;;;21.43;100.00
60258;BME280;46115;44.484;11.314;2022-08-19T00:29:24;99712.13;;;21.18;100.00
60258;BME280;46115;44.484;11.314;2022-08-19T00:33:28;99712.19;;;21.34;100.00
60258;BME280;46115;44.484;11.314;2022-08-19T00:37:31;99725.41;;;21.62;100.00
60258;BME280;46115;44.484;11.314;2022-08-19T00:41:35;99741.94;;;21.07;100.00
60258;BME280;46115;44.484;11.314;2022-08-19T00:45:38;99760.19;;;20.95;100.00
60258;BME280;46115;44.484;11.314;2022-08-19T00:49:46;99746.28;;;21.26;100.00
60258;BME280;46115;44.484;11.314;2022-08-19T00:53:52;99745.59;;;20.98;100.00
60258;BME280;46115;44.484;11.314;2022-08-19T00:58:00;99764.31;;;21.15;100.00
60258;BME280;46115;44.484;11.314;2022-08-19T01:02:04;99724.78;;;21.00;100.00
60258;BME280;46115;44.484;11.314;2022-08-19T01:06:08;99718.41;;;20.75;100.00
60258;BME280;46115;44.484;11.314;2022-08-19T01:10:13;99699.72;;;20.91;100.00
60258;BME280;46115;44.484;11.314;2022-08-19T01:14:16;99705.28;;;20.98;100.00
60258;BME280;46115;44.484;11.314;2022-08-19T01:18:20;99709.63;;;20.91;100.00
60258;BME280;46115;44.484;11.314;2022-08-19T01:22:30;99708.59;;;20.83;100.00
60258;BME280;46115;44.484;11.314;2022-08-19T01:26:38;99705.16;;;21.07;100.00
60258;BME280;46115;44.484;11.314;2022-08-19T01:30:42;99690.13;;;20.89;100.00
60258;BME280;46115;44.484;11.314;2022-08-19T01:34:45;99678.34;;;20.81;100.00
60258;BME280;46115;44.484;11.314;2022-08-19T01:38:49;99677.34;;;20.82;100.00
60258;BME280;46115;44.484;11.314;2022-08-19T01:42:52;99677.09;;;20.68;100.00
60258;BME280;46115;44.484;11.314;2022-08-19T01:46:55;99682.75;;;20.91;100.00
60258;BME280;46115;44.484;11.314;2022-08-19T01:50:58;99689.66;;;20.93;100.00
60258;BME280;46115;44.484;11.314;2022-08-19T01:55:04;99674.88;;;20.89;100.00
60258;BME280;46115;44.484;11.314;2022-08-19T01:59:10;99673.44;;;20.77;100.00
60258;BME280;46115;44.484;11.314;2022-08-19T02:03:14;99677.03;;;20.85;100.00
60258;BME280;46115;44.484;11.314;2022-08-19T02:07:18;99664.78;;;20.57;100.00
60258;BME280;46115;44.484;11.314;2022-08-19T02:11:25;99648.00;;;20.37;100.00
60258;BME280;46115;44.484;11.314;2022-08-19T02:15:28;99651.63;;;20.28;100.00
60258;BME280;46115;44.484;11.314;2022-08-19T02:19:31;99661.72;;;20.34;100.00
60258;BME280;46115;44.484;11.314;2022-08-19T02:23:34;99649.63;;;20.48;100.00
60258;BME280;46115;44.484;11.314;2022-08-19T02:27:39;99645.16;;;20.39;100.00
60258;BME280;46115;44.484;11.314;2022-08-19T02:31:41;99656.28;;;20.44;100.00
60258;BME280;46115;44.484;11.314;2022-08-19T02:35:45;99651.06;;;20.42;100.00
60258;BME280;46115;44.484;11.314;2022-08-19T02:39:48;99643.47;;;20.55;100.00
60258;BME280;46115;44.484;11.314;2022-08-19T02:43:52;99627.91;;;20.41;100.00
60258;BME280;46115;44.484;11.314;2022-08-19T02:47:54;99625.78;;;20.27;100.00
60258;BME280;46115;44.484;11.314;2022-08-19T02:51:57;99606.03;;;20.54;100.00
60258;BME280;46115;44.484;11.314;2022-08-19T02:56:00;99615.78;;;20.55;100.00
60258;BME280;46115;44.484;11.314;2022-08-19T03:00:06;99627.94;;;20.75;100.00
60258;BME280;46115;44.484;11.314;2022-08-19T03:04:11;99628.00;;;20.83;100.00
60258;BME280;46115;44.484;11.314;2022-08-19T03:08:15;99635.00;;;20.76;100.00
60258;BME280;46115;44.484;11.314;2022-08-19T03:12:17;99632.91;;;20.62;100.00
60258;BME280;46115;44.484;11.314;2022-08-19T03:16:24;99641.00;;;20.70;100.00
60258;BME280;46115;44.484;11.314;2022-08-19T03:24:29;99633.03;;;20.52;100.00
60258;BME280;46115;44.484;11.314;2022-08-19T03:28:32;99636.44;;;20.63;100.00
60258;BME280;46115;44.484;11.314;2022-08-19T03:32:36;99633.81;;;20.79;100.00
60258;BME280;46115;44.484;11.314;2022-08-19T03:36:39;99622.25;;;20.78;100.00
60258;BME280;46115;44.484;11.314;2022-08-19T03:40:41;99615.81;;;20.63;100.00
60258;BME280;46115;44.484;11.314;2022-08-19T03:44:44;99609.50;;;20.80;100.00
60258;BME280;46115;44.484;11.314;2022-08-19T03:48:50;99610.63;;;20.70;100.00
60258;BME280;46115;44.484;11.314;2022-08-19T03:52:54;99621.34;;;20.62;100.00
60258;BME280;46115;44.484;11.314;2022-08-19T03:56:57;99626.63;;;20.79;100.00
60258;BME280;46115;44.484;11.314;2022-08-19T04:01:00;99618.09;;;20.84;100.00
60258;BME280;46115;44.484;11.314;2022-08-19T04:05:05;99607.94;;;20.70;100.00
60258;BME280;46115;44.484;11.314;2022-08-19T04:09:10;99599.84;;;20.96;100.00
60258;BME280;46115;44.484;11.314;2022-08-19T04:13:13;99597.50;;;21.01;100.00
60258;BME280;46115;44.484;11.314;2022-08-19T04:17:16;99614.47;;;21.09;100.00
60258;BME280;46115;44.484;11.314;2022-08-19T04:21:22;99619.63;;;21.29;100.00
60258;BME280;46115;44.484;11.314;2022-08-19T04:25:25;99634.59;;;20.97;100.00
60258;BME280;46115;44.484;11.314;2022-08-19T04:29:27;99634.34;;;21.16;100.00
60258;BME280;46115;44.484;11.314;2022-08-19T04:33:31;99641.97;;;21.29;100.00
60258;BME280;46115;44.484;11.314;2022-08-19T04:37:34;99645.84;;;21.35;100.00
60258;BME280;46115;44.484;11.314;2022-08-19T04:41:37;99644.72;;;21.70;100.00
60258;BME280;46115;44.484;11.314;2022-08-19T04:45:57;99644.22;;;21.58;100.00
60258;BME280;46115;44.484;11.314;2022-08-19T04:49:59;99635.47;;;21.56;100.00
60258;BME280;46115;44.484;11.314;2022-08-19T04:54:03;99630.22;;;21.46;100.00
60258;BME280;46115;44.484;11.314;2022-08-19T04:58:06;99649.38;;;21.43;100.00
60258;BME280;46115;44.484;11.314;2022-08-19T05:02:09;99633.59;;;21.48;100.00
60258;BME280;46115;44.484;11.314;2022-08-19T05:06:14;99612.69;;;21.18;100.00
60258;BME280;46115;44.484;11.314;2022-08-19T05:10:18;99604.91;;;21.15;100.00
60258;BME280;46115;44.484;11.314;2022-08-19T05:14:21;99618.53;;;21.13;100.00
60258;BME280;46115;44.484;11.314;2022-08-19T05:18:24;99625.28;;;21.17;100.00
60258;BME280;46115;44.484;11.314;2022-08-19T05:22:45;99635.09;;;21.35;100.00
60258;BME280;46115;44.484;11.314;2022-08-19T05:26:51;99636.44;;;21.39;100.00
60258;BME280;46115;44.484;11.314;2022-08-19T05:30:54;99623.56;;;21.67;100.00
60258;BME280;46115;44.484;11.314;2022-08-19T05:34:56;99626.19;;;21.42;100.00
60258;BME280;46115;44.484;11.314;2022-08-19T05:38:59;99640.28;;;21.28;100.00
60258;BME280;46115;44.484;11.314;2022-08-19T05:43:02;99633.31;;;21.60;100.00
60258;BME280;46115;44.484;11.314;2022-08-19T05:47:06;99609.59;;;21.05;100.00
60258;BME280;46115;44.484;11.314;2022-08-19T05:51:09;99646.41;;;21.12;100.00
60258;BME280;46115;44.484;11.314;2022-08-19T05:55:12;99652.84;;;20.85;100.00
60258;BME280;46115;44.484;11.314;2022-08-19T05:59:16;99649.84;;;20.89;100.00
60258;BME280;46115;44.484;11.314;2022-08-19T06:03:19;99678.19;;;20.83;100.00
60258;BME280;46115;44.484;11.314;2022-08-19T06:07:22;99663.13;;;20.64;100.00
60258;BME280;46115;44.484;11.314;2022-08-19T06:11:32;99622.84;;;20.64;100.00
60258;BME280;46115;44.484;11.314;2022-08-19T06:15:37;99685.69;;;20.10;100.00
60258;BME280;46115;44.484;11.314;2022-08-19T06:19:39;99689.06;;;20.12;100.00
60258;BME280;46115;44.484;11.314;2022-08-19T06:23:44;99706.47;;;20.08;100.00
60258;BME280;46115;44.484;11.314;2022-08-19T06:27:48;99714.66;;;20.42;100.00
60258;BME280;46115;44.484;11.314;2022-08-19T06:31:57;99709.66;;;20.11;100.00
60258;BME280;46115;44.484;11.314;2022-08-19T06:36:00;99719.66;;;20.19;100.00
60258;BME280;46115;44.484;11.314;2022-08-19T06:40:03;99723.16;;;20.37;100.00
60258;BME280;46115;44.484;11.314;2022-08-19T06:44:07;99725.78;;;20.29;100.00
60258;BME280;46115;44.484;11.314;2022-08-19T06:48:11;99730.38;;;20.01;100.00
60258;BME280;46115;44.484;11.314;2022-08-19T06:52:14;99754.06;;;20.23;100.00
60258;BME280;46115;44.484;11.314;2022-08-19T06:56:19;99724.66;;;20.14;100.00
60258;BME280;46115;44.484;11.314;2022-08-19T07:00:22;99754.91;;;20.24;100.00
60258;BME280;46115;44.484;11.314;2022-08-19T07:04:27;99767.59;;;20.14;100.00
60258;BME280;46115;44.484;11.314;2022-08-19T07:08:33;99782.22;;;20.19;100.00
60258;BME280;46115;44.484;11.314;2022-08-19T07:12:37;99783.13;;;20.46;100.00
60258;BME280;46115;44.484;11.314;2022-08-19T07:16:40;99789.97;;;20.22;100.00
60258;BME280;46115;44.484;11.314;2022-08-19T07:20:44;99796.53;;;20.28;100.00
60258;BME280;46115;44.484;11.314;2022-08-19T07:24:47;99801.69;;;20.21;100.00
60258;BME280;46115;44.484;11.314;2022-08-19T07:28:49;99813.38;;;19.85;100.00
60258;BME280;46115;44.484;11.314;2022-08-19T07:32:51;99818.34;;;20.43;100.00
60258;BME280;46115;44.484;11.314;2022-08-19T07:36:56;99824.78;;;20.68;99.49
60258;BME280;46115;44.484;11.314;2022-08-19T07:40:59;99824.25;;;20.82;95.05
60258;BME280;46115;44.484;11.314;2022-08-19T07:45:01;99826.06;;;20.28;91.98
60258;BME280;46115;44.484;11.314;2022-08-19T07:49:05;99821.56;;;20.46;90.77
60258;BME280;46115;44.484;11.314;2022-08-19T07:53:09;99820.75;;;20.90;87.77
60258;BME280;46115;44.484;11.314;2022-08-19T07:57:12;99816.66;;;21.97;82.93
60258;BME280;46115;44.484;11.314;2022-08-19T08:01:19;99825.25;;;21.07;85.05
60258;BME280;46115;44.484;11.314;2022-08-19T08:05:22;99833.00;;;20.84;85.62
60258;BME280;46115;44.484;11.314;2022-08-19T08:09:44;99841.28;;;21.16;87.45
60258;BME280;46115;44.484;11.314;2022-08-19T08:13:48;99850.69;;;20.95;90.08
60258;BME280;46115;44.484;11.314;2022-08-19T08:17:50;99845.25;;;20.86;91.38
60258;BME280;46115;44.484;11.314;2022-08-19T08:21:54;99845.69;;;21.00;91.60
60258;BME280;46115;44.484;11.314;2022-08-19T08:25:58;99841.69;;;21.04;90.49
60258;BME280;46115;44.484;11.314;2022-08-19T08:30:01;99842.50;;;22.49;81.58
60258;BME280;46115;44.484;11.314;2022-08-19T08:34:03;99857.72;;;34.77;40.93
60258;BME280;46115;44.484;11.314;2022-08-19T08:38:06;99844.66;;;34.10;40.82
60258;BME280;46115;44.484;11.314;2022-08-19T08:42:15;99839.63;;;29.17;52.88
60258;BME280;46115;44.484;11.314;2022-08-19T08:46:30;99830.41;;;27.63;61.27
60258;BME280;46115;44.484;11.314;2022-08-19T08:50:39;99836.47;;;26.60;60.71
60258;BME280;46115;44.484;11.314;2022-08-19T08:54:46;99839.66;;;25.76;63.69
60258;BME280;46115;44.484;11.314;2022-08-19T08:58:57;99847.75;;;26.63;62.03
60258;BME280;46115;44.484;11.314;2022-08-19T09:03:01;99826.22;;;26.19;64.88
60258;BME280;46115;44.484;11.314;2022-08-19T09:07:15;99846.78;;;25.10;72.91
60258;BME280;46115;44.484;11.314;2022-08-19T09:11:32;99843.16;;;25.18;71.43
60258;BME280;46115;44.484;11.314;2022-08-19T09:15:41;99856.03;;;26.55;66.20
60258;BME280;46115;44.484;11.314;2022-08-19T09:19:51;99849.13;;;25.28;70.86
60258;BME280;46115;44.484;11.314;2022-08-19T09:23:54;99889.63;;;35.62;41.38
60258;BME280;46115;44.484;11.314;2022-08-19T09:27:58;99873.66;;;28.73;57.92
60258;BME280;46115;44.484;11.314;2022-08-19T09:32:06;99875.22;;;27.80;59.48
60258;BME280;46115;44.484;11.314;2022-08-19T09:36:10;99884.38;;;29.41;54.58
60258;BME280;46115;44.484;11.314;2022-08-19T09:40:13;99879.03;;;28.40;59.99
60258;BME280;46115;44.484;11.314;2022-08-19T09:44:16;99886.28;;;28.94;56.37
60258;BME280;46115;44.484;11.314;2022-08-19T09:48:22;99878.66;;;28.63;58.61
60258;BME280;46115;44.484;11.314;2022-08-19T09:52:25;99879.81;;;27.24;60.31
60258;BME280;46115;44.484;11.314;2022-08-19T09:56:28;99875.59;;;28.18;57.01
60258;BME280;46115;44.484;11.314;2022-08-19T10:00:31;99857.19;;;27.10;59.45
60258;BME280;46115;44.484;11.314;2022-08-19T10:04:34;99848.19;;;27.65;61.42
60258;BME280;46115;44.484;11.314;2022-08-19T10:08:55;99835.81;;;28.04;58.07
60258;BME280;46115;44.484;11.314;2022-08-19T10:12:57;99850.78;;;27.80;57.98
60258;BME280;46115;44.484;11.314;2022-08-19T10:17:01;99861.06;;;27.57;58.12
60258;BME280;46115;44.484;11.314;2022-08-19T10:21:08;99866.41;;;27.16;59.91
60258;BME280;46115;44.484;11.314;2022-08-19T10:25:11;99869.16;;;27.78;57.61
60258;BME280;46115;44.484;11.314;2022-08-19T10:29:15;99858.31;;;27.85;58.17
60258;BME280;46115;44.484;11.314;2022-08-19T10:33:18;99848.47;;;27.77;57.16
60258;BME280;46115;44.484;11.314;2022-08-19T10:37:22;99845.69;;;27.71;57.27
60258;BME280;46115;44.484;11.314;2022-08-19T10:41:27;99831.84;;;28.00;54.36
60258;BME280;46115;44.484;11.314;2022-08-19T10:45:30;99831.34;;;27.77;54.88
60258;BME280;46115;44.484;11.314;2022-08-19T10:49:32;99831.38;;;26.71;58.21
60258;BME280;46115;44.484;11.314;2022-08-19T10:53:57;99819.34;;;27.02;58.15
60258;BME280;46115;44.484;11.314;2022-08-19T10:58:00;99817.72;;;26.86;58.09
60258;BME280;46115;44.484;11.314;2022-08-19T11:02:04;99806.22;;;26.20;59.83
60258;BME280;46115;44.484;11.314;2022-08-19T11:06:08;99807.88;;;26.79;59.02
60258;BME280;46115;44.484;11.314;2022-08-19T11:10:13;99806.69;;;27.09;58.30
60258;BME280;46115;44.484;11.314;2022-08-19T11:14:20;99798.84;;;27.27;56.55
60258;BME280;46115;44.484;11.314;2022-08-19T11:18:23;99806.88;;;26.86;59.59
60258;BME280;46115;44.484;11.314;2022-08-19T11:22:25;99810.41;;;26.37;58.40
60258;BME280;46115;44.484;11.314;2022-08-19T11:26:30;99809.16;;;26.61;56.54
60258;BME280;46115;44.484;11.314;2022-08-19T11:30:32;99811.53;;;26.71;56.37
60258;BME280;46115;44.484;11.314;2022-08-19T11:34:35;99807.50;;;26.39;59.17
60258;BME280;46115;44.484;11.314;2022-08-19T11:38:38;99813.47;;;25.98;60.94
60258;BME280;46115;44.484;11.314;2022-08-19T11:42:42;99815.50;;;26.47;56.37
60258;BME280;46115;44.484;11.314;2022-08-19T11:46:57;99822.25;;;26.58;56.80
60258;BME280;46115;44.484;11.314;2022-08-19T11:51:04;99816.50;;;26.89;55.42
60258;BME280;46115;44.484;11.314;2022-08-19T11:55:08;99818.56;;;26.87;54.70
60258;BME280;46115;44.484;11.314;2022-08-19T11:59:12;99810.78;;;26.77;56.21
60258;BME280;46115;44.484;11.314;2022-08-19T12:03:15;99808.72;;;26.58;55.73
60258;BME280;46115;44.484;11.314;2022-08-19T12:07:17;99798.22;;;26.12;57.12
60258;BME280;46115;44.484;11.314;2022-08-19T12:11:20;99806.09;;;26.92;56.52
60258;BME280;46115;44.484;11.314;2022-08-19T12:15:26;99807.28;;;26.83;57.24
60258;BME280;46115;44.484;11.314;2022-08-19T12:19:30;99797.06;;;27.07;56.94
60258;BME280;46115;44.484;11.314;2022-08-19T12:23:32;99794.69;;;26.76;55.42
60258;BME280;46115;44.484;11.314;2022-08-19T12:27:35;99784.03;;;26.10;55.55
60258;BME280;46115;44.484;11.314;2022-08-19T12:31:39;99783.53;;;25.85;55.08
60258;BME280;46115;44.484;11.314;2022-08-19T12:35:42;99784.84;;;26.47;54.27
60258;BME280;46115;44.484;11.314;2022-08-19T12:39:45;99790.81;;;26.21;53.36
60258;BME280;46115;44.484;11.314;2022-08-19T12:43:47;99795.59;;;26.61;53.45
60258;BME280;46115;44.484;11.314;2022-08-19T12:47:51;99790.63;;;25.86;54.68
60258;BME280;46115;44.484;11.314;2022-08-19T12:51:54;99785.09;;;26.73;53.11
60258;BME280;46115;44.484;11.314;2022-08-19T12:55:57;99779.47;;;26.75;54.44
60258;BME280;46115;44.484;11.314;2022-08-19T13:00:05;99776.25;;;26.92;53.60
60258;BME280;46115;44.484;11.314;2022-08-19T13:04:12;99762.06;;;26.90;53.36
60258;BME280;46115;44.484;11.314;2022-08-19T13:08:14;99774.72;;;26.55;55.14
60258;BME280;46115;44.484;11.314;2022-08-19T13:12:16;99776.25;;;26.64;54.73
60258;BME280;46115;44.484;11.314;2022-08-19T13:16:22;99782.88;;;26.83;54.57
60258;BME280;46115;44.484;11.314;2022-08-19T13:20:26;99779.56;;;26.88;54.45
60258;BME280;46115;44.484;11.314;2022-08-19T13:24:28;99783.31;;;26.37;54.86
60258;BME280;46115;44.484;11.314;2022-08-19T13:28:31;99796.97;;;26.72;53.31
60258;BME280;46115;44.484;11.314;2022-08-19T13:32:47;99799.53;;;26.80;53.14
60258;BME280;46115;44.484;11.314;2022-08-19T13:37:08;99794.16;;;26.23;53.57
60258;BME280;46115;44.484;11.314;2022-08-19T13:41:11;99789.63;;;26.30;53.71
60258;BME280;46115;44.484;11.314;2022-08-19T13:45:14;99794.91;;;26.74;52.19
60258;BME280;46115;44.484;11.314;2022-08-19T13:49:17;99786.13;;;26.51;53.23
60258;BME280;46115;44.484;11.314;2022-08-19T13:53:21;99768.91;;;26.01;54.35
60258;BME280;46115;44.484;11.314;2022-08-19T13:57:24;99789.72;;;26.00;53.34
60258;BME280;46115;44.484;11.314;2022-08-19T14:01:27;99797.19;;;26.13;53.47
60258;BME280;46115;44.484;11.314;2022-08-19T14:05:31;99798.66;;;26.73;52.37
60258;BME280;46115;44.484;11.314;2022-08-19T14:09:35;99784.69;;;26.12;54.87
60258;BME280;46115;44.484;11.314;2022-08-19T14:13:38;99788.25;;;26.34;53.60
60258;BME280;46115;44.484;11.314;2022-08-19T14:17:41;99795.50;;;26.48;53.20
60258;BME280;46115;44.484;11.314;2022-08-19T14:21:44;99798.63;;;25.94;53.52
60258;BME280;46115;44.484;11.314;2022-08-19T14:25:47;99787.19;;;26.14;53.51
60258;BME280;46115;44.484;11.314;2022-08-19T14:29:50;99786.75;;;26.10;53.08
60258;BME280;46115;44.484;11.314;2022-08-19T14:33:52;99786.47;;;25.69;54.69
60258;BME280;46115;44.484;11.314;2022-08-19T14:37:55;99787.38;;;25.46;53.60
60258;BME280;46115;44.484;11.314;2022-08-19T14:42:00;99790.75;;;25.48;54.65
60258;BME280;46115;44.484;11.314;2022-08-19T14:46:02;99788.41;;;25.45;56.52
60258;BME280;46115;44.484;11.314;2022-08-19T14:50:06;99790.88;;;25.91;56.17
60258;BME280;46115;44.484;11.314;2022-08-19T14:54:09;99784.88;;;25.74;57.53
60258;BME280;46115;44.484;11.314;2022-08-19T14:58:13;99795.47;;;25.91;57.83
60258;BME280;46115;44.484;11.314;2022-08-19T15:02:16;99792.31;;;25.87;56.73
60258;BME280;46115;44.484;11.314;2022-08-19T15:06:18;99797.13;;;26.42;55.54
60258;BME280;46115;44.484;11.314;2022-08-19T15:10:21;99800.34;;;26.17;57.02
60258;BME280;46115;44.484;11.314;2022-08-19T15:14:27;99787.41;;;25.97;58.18
60258;BME280;46115;44.484;11.314;2022-08-19T15:18:34;99779.19;;;25.69;59.69
60258;BME280;46115;44.484;11.314;2022-08-19T15:22:37;99768.41;;;25.61;59.79
60258;BME280;46115;44.484;11.314;2022-08-19T15:26:40;99771.84;;;26.21;56.87
60258;BME280;46115;44.484;11.314;2022-08-19T15:30:45;99781.44;;;26.02;57.05
60258;BME280;46115;44.484;11.314;2022-08-19T15:34:47;99779.88;;;25.63;58.11
60258;BME280;46115;44.484;11.314;2022-08-19T15:38:50;99780.41;;;25.37;59.45
60258;BME280;46115;44.484;11.314;2022-08-19T15:42:53;99744.38;;;25.37;58.23
60258;BME280;46115;44.484;11.314;2022-08-19T15:46:57;99789.72;;;25.79;56.12
60258;BME280;46115;44.484;11.314;2022-08-19T15:50:59;99794.75;;;25.53;57.30
60258;BME280;46115;44.484;11.314;2022-08-19T15:55:04;99794.22;;;25.72;56.53
60258;BME280;46115;44.484;11.314;2022-08-19T15:59:07;99799.31;;;25.52;56.79
60258;BME280;46115;44.484;11.314;2022-08-19T16:03:29;99802.13;;;25.73;55.92
60258;BME280;46115;44.484;11.314;2022-08-19T16:07:49;99808.66;;;25.35;57.87
60258;BME280;46115;44.484;11.314;2022-08-19T16:11:51;99811.19;;;25.36;58.83
60258;BME280;46115;44.484;11.314;2022-08-19T16:15:54;99816.28;;;25.31;60.20
60258;BME280;46115;44.484;11.314;2022-08-19T16:19:59;99813.13;;;25.28;61.90
60258;BME280;46115;44.484;11.314;2022-08-19T16:24:04;99812.41;;;25.34;60.97
60258;BME280;46115;44.484;11.314;2022-08-19T16:28:07;99814.69;;;25.07;61.60
60258;BME280;46115;44.484;11.314;2022-08-19T16:32:10;99812.53;;;25.03;59.71
60258;BME280;46115;44.484;11.314;2022-08-19T16:36:14;99785.13;;;24.68;59.74
60258;BME280;46115;44.484;11.314;2022-08-19T16:40:17;99808.13;;;24.64;58.71
60258;BME280;46115;44.484;11.314;2022-08-19T16:44:20;99801.22;;;24.62;58.94
60258;BME280;46115;44.484;11.314;2022-08-19T16:48:25;99803.13;;;24.53;59.53
60258;BME280;46115;44.484;11.314;2022-08-19T16:52:31;99797.72;;;24.76;60.62
60258;BME280;46115;44.484;11.314;2022-08-19T16:56:34;99775.47;;;24.51;61.19
60258;BME280;46115;44.484;11.314;2022-08-19T17:00:36;99802.22;;;25.36;58.40
60258;BME280;46115;44.484;11.314;2022-08-19T17:04:39;99809.69;;;24.96;58.93
60258;BME280;46115;44.484;11.314;2022-08-19T17:08:43;99791.66;;;24.74;59.44
60258;BME280;46115;44.484;11.314;2022-08-19T17:12:46;99816.66;;;24.76;60.09
60258;BME280;46115;44.484;11.314;2022-08-19T17:16:48;99819.28;;;24.61;61.78
60258;BME280;46115;44.484;11.314;2022-08-19T17:20:51;99817.09;;;24.42;61.91
60258;BME280;46115;44.484;11.314;2022-08-19T17:24:55;99828.13;;;24.32;63.34
60258;BME280;46115;44.484;11.314;2022-08-19T17:28:59;99824.41;;;24.25;62.77
60258;BME280;46115;44.484;11.314;2022-08-19T17:33:02;99819.31;;;24.07;62.71
60258;BME280;46115;44.484;11.314;2022-08-19T17:37:05;99838.31;;;24.14;64.38
60258;BME280;46115;44.484;11.314;2022-08-19T17:41:08;99835.72;;;23.98;64.54
60258;BME280;46115;44.484;11.314;2022-08-19T17:45:12;99834.25;;;23.87;65.37
60258;BME280;46115;44.484;11.314;2022-08-19T17:49:15;99838.44;;;23.89;66.13
60258;BME280;46115;44.484;11.314;2022-08-19T17:53:17;99844.38;;;23.85;66.82
60258;BME280;46115;44.484;11.314;2022-08-19T17:57:21;99814.13;;;23.58;67.04
60258;BME280;46115;44.484;11.314;2022-08-19T18:01:24;99830.59;;;23.72;66.81
60258;BME280;46115;44.484;11.314;2022-08-19T18:05:29;99841.78;;;23.60;67.55
60258;BME280;46115;44.484;11.314;2022-08-19T18:09:34;99842.47;;;23.46;68.12
60258;BME280;46115;44.484;11.314;2022-08-19T18:13:38;99849.84;;;23.52;67.88
60258;BME280;46115;44.484;11.314;2022-08-19T18:17:41;99844.66;;;23.43;68.84
60258;BME280;46115;44.484;11.314;2022-08-19T18:21:43;99849.94;;;23.28;69.13
60258;BME280;46115;44.484;11.314;2022-08-19T18:25:47;99858.84;;;23.20;69.70
60258;BME280;46115;44.484;11.314;2022-08-19T18:29:50;99877.38;;;23.23;72.21
60258;BME280;46115;44.484;11.314;2022-08-19T18:33:54;99873.88;;;23.15;73.18
60258;BME280;46115;44.484;11.314;2022-08-19T18:37:59;99861.91;;;23.17;72.97
60258;BME280;46115;44.484;11.314;2022-08-19T18:42:02;99872.88;;;23.08;73.71
60258;BME280;46115;44.484;11.314;2022-08-19T18:46:23;99869.34;;;22.91;71.92
60258;BME280;46115;44.484;11.314;2022-08-19T18:50:43;99869.50;;;22.97;70.68
60258;BME280;46115;44.484;11.314;2022-08-19T18:54:45;99872.88;;;22.99;70.32
60258;BME280;46115;44.484;11.314;2022-08-19T22:06:08;99955.56;;;20.85;88.10
60258;BME280;46115;44.484;11.314;2022-08-19T22:10:11;99948.09;;;20.97;87.30
60258;BME280;46115;44.484;11.314;2022-08-19T22:14:13;99956.47;;;20.94;86.68
60258;BME280;46115;44.484;11.314;2022-08-19T22:18:16;99954.78;;;20.93;85.90
60258;BME280;46115;44.484;11.314;2022-08-19T22:22:22;99966.16;;;20.86;86.11
60258;BME280;46115;44.484;11.314;2022-08-19T22:26:25;99958.94;;;20.87;85.76
60258;BME280;46115;44.484;11.314;2022-08-19T22:30:29;99964.31;;;20.87;86.92
60258;BME280;46115;44.484;11.314;2022-08-19T22:34:31;99977.47;;;20.80;88.11
60258;BME280;46115;44.484;11.314;2022-08-19T22:38:36;99983.47;;;20.74;89.10
60258;BME280;46115;44.484;11.314;2022-08-19T22:42:39;99960.91;;;20.67;89.26
60258;BME280;46115;44.484;11.314;2022-08-19T22:46:41;99982.75;;;20.72;89.60
60258;BME280;46115;44.484;11.314;2022-08-19T22:50:45;99977.94;;;20.58;90.96
60258;BME280;46115;44.484;11.314;2022-08-19T22:55:10;99987.66;;;20.59;90.95
60258;BME280;46115;44.484;11.314;2022-08-19T22:59:12;99990.41;;;20.49;91.98
60258;BME280;46115;44.484;11.314;2022-08-19T23:03:15;99983.75;;;20.53;91.70
60258;BME280;46115;44.484;11.314;2022-08-19T23:07:18;99978.53;;;20.52;91.19
60258;BME280;46115;44.484;11.314;2022-08-19T23:11:23;99980.22;;;20.53;90.69
60258;BME280;46115;44.484;11.314;2022-08-19T23:15:28;99977.44;;;20.35;90.96
60258;BME280;46115;44.484;11.314;2022-08-19T23:19:31;99980.22;;;20.53;89.72
60258;BME280;46115;44.484;11.314;2022-08-19T23:23:35;99983.22;;;20.50;90.11
60258;BME280;46115;44.484;11.314;2022-08-19T23:27:39;99983.38;;;20.66;88.61
60258;BME280;46115;44.484;11.314;2022-08-19T23:31:59;99961.31;;;20.45;89.31
60258;BME280;46115;44.484;11.314;2022-08-19T23:36:06;99966.69;;;20.45;90.02
60258;BME280;46115;44.484;11.314;2022-08-19T23:40:09;99976.94;;;20.59;89.63
60258;BME280;46115;44.484;11.314;2022-08-19T23:44:13;99975.69;;;20.53;89.87
60258;BME280;46115;44.484;11.314;2022-08-19T23:48:15;99975.31;;;20.39;90.77
60258;BME280;46115;44.484;11.314;2022-08-19T23:52:18;99980.13;;;20.35;90.68
60258;BME280;46115;44.484;11.314;2022-08-19T23:56:21;99973.13;;;20.24;90.93
